createdAt,value
2023-04-17T00:00:43.584Z,2.37
2023-04-17T00:03:47.549Z,2.10
2023-04-17T00:06:53.888Z,2.03
2023-04-17T00:09:57.196Z,2.30
2023-04-17T00:12:59.893Z,2.60
2023-04-17T00:16:02.855Z,2.40
2023-04-17T00:19:06.330Z,2.40
2023-04-17T00:22:09.108Z,2.40
2023-04-17T00:25:14.767Z,2.38
2023-04-17T00:28:17.384Z,2.30
2023-04-17T00:31:20.255Z,2.40
2023-04-17T00:34:22.874Z,2.43
2023-04-17T00:37:25.540Z,2.70
2023-04-17T00:40:28.243Z,2.58
2023-04-17T00:43:30.975Z,2.55
2023-04-17T00:46:33.755Z,2.80
2023-04-17T00:49:36.864Z,2.57
2023-04-17T00:52:39.755Z,2.67
2023-04-17T00:55:44.774Z,2.50
2023-04-17T00:58:48.819Z,3.00
2023-04-17T01:01:51.554Z,3.03
2023-04-17T01:04:54.191Z,2.63
2023-04-17T01:07:59.646Z,2.70
2023-04-17T01:11:02.463Z,2.67
2023-04-17T01:14:05.299Z,2.88
2023-04-17T01:17:08.053Z,2.80
2023-04-17T01:20:12.021Z,2.90
2023-04-17T01:23:15.789Z,3.10
2023-04-17T01:26:28.295Z,3.10
2023-04-17T01:29:31.317Z,3.03
2023-04-17T01:32:34.282Z,3.10
2023-04-17T01:35:36.912Z,3.20
2023-04-17T01:38:40.568Z,2.63
2023-04-17T01:41:43.494Z,3.13
2023-04-17T01:44:46.379Z,2.72
2023-04-17T01:47:49.038Z,2.73
2023-04-17T01:50:52.434Z,3.20
2023-04-17T01:53:55.913Z,3.00
2023-04-17T01:56:58.462Z,2.70
2023-04-17T02:00:01.686Z,2.90
2023-04-17T02:03:15.843Z,2.70
2023-04-17T02:06:19.472Z,3.00
2023-04-17T02:09:22.580Z,2.90
2023-04-17T02:12:25.371Z,3.00
2023-04-17T02:15:28.865Z,2.60
2023-04-17T02:18:32.444Z,2.87
2023-04-17T02:21:37.051Z,2.70
2023-04-17T02:24:41.121Z,3.15
2023-04-17T02:27:44.424Z,2.60
2023-04-17T02:30:46.940Z,2.72
2023-04-17T02:33:50.889Z,2.93
2023-04-17T02:36:53.352Z,3.17
2023-04-17T02:39:59.434Z,2.55
2023-04-17T02:43:02.871Z,2.85
2023-04-17T02:46:06.471Z,3.10
2023-04-17T02:49:10.607Z,3.00
2023-04-17T02:52:15.576Z,2.83
2023-04-17T02:55:19.164Z,3.20
2023-04-17T02:58:21.882Z,3.03
2023-04-17T03:01:26.415Z,3.33
2023-04-17T03:04:29.230Z,3.27
2023-04-17T03:07:31.777Z,3.30
2023-04-17T03:10:35.442Z,3.47
2023-04-17T03:13:38.444Z,3.25
2023-04-17T03:16:40.978Z,3.70
2023-04-17T03:19:44.462Z,3.30
2023-04-17T03:22:48.014Z,3.37
2023-04-17T03:25:51.109Z,3.90
2023-04-17T03:28:54.489Z,3.28
2023-04-17T03:31:58.552Z,3.47
2023-04-17T03:35:02.043Z,3.50
2023-04-17T03:38:04.743Z,3.37
2023-04-17T03:41:07.295Z,3.15
2023-04-17T03:44:10.624Z,3.30
2023-04-17T03:47:13.158Z,2.92
2023-04-17T03:50:17.613Z,3.50
2023-04-17T03:53:31.039Z,2.97
2023-04-17T03:56:37.620Z,3.03
2023-04-17T03:59:41.152Z,3.10
2023-04-17T04:02:44.038Z,3.20
2023-04-17T04:05:47.899Z,3.23
2023-04-17T04:08:50.734Z,3.00
2023-04-17T04:11:54.060Z,2.92
2023-04-17T04:14:57.998Z,2.90
2023-04-17T04:18:03.185Z,3.40
2023-04-17T04:21:06.986Z,3.30
2023-04-17T04:24:14.474Z,3.30
2023-04-17T04:27:22.734Z,3.38
2023-04-17T04:30:30.564Z,3.33
2023-04-17T04:33:45.457Z,2.88
2023-04-17T04:36:51.979Z,3.17
2023-04-17T04:40:11.083Z,3.27
2023-04-17T04:43:17.708Z,3.33
2023-04-17T04:46:22.889Z,2.72
2023-04-17T04:49:26.569Z,3.00
2023-04-17T04:52:29.167Z,2.40
2023-04-17T04:55:36.160Z,2.90
2023-04-17T04:58:40.030Z,3.08
2023-04-17T05:01:44.957Z,2.70
2023-04-17T05:04:49.629Z,3.13
2023-04-17T05:07:55.865Z,3.30
2023-04-17T05:11:02.753Z,2.70
2023-04-17T05:14:05.609Z,2.78
2023-04-17T05:17:12.049Z,2.55
2023-04-17T05:20:19.026Z,3.00
2023-04-17T05:23:30.704Z,3.30
2023-04-17T05:26:33.719Z,3.17
2023-04-17T05:29:37.644Z,3.22
2023-04-17T05:32:40.481Z,3.10
2023-04-17T05:36:02.943Z,2.90
2023-04-17T05:39:10.610Z,3.80
2023-04-17T05:42:13.617Z,3.00
2023-04-17T05:45:21.096Z,3.30
2023-04-17T05:48:25.359Z,3.55
2023-04-17T05:51:28.920Z,3.15
2023-04-17T05:54:31.636Z,6.77
2023-04-17T05:57:43.148Z,3.03
2023-04-17T06:00:46.917Z,3.20
2023-04-17T06:03:58.823Z,3.05
2023-04-17T06:07:23.802Z,2.78
2023-04-17T06:11:37.445Z,3.80
2023-04-17T06:14:40.611Z,2.60
2023-04-17T06:17:45.315Z,2.60
2023-04-17T06:20:48.105Z,2.80
2023-04-17T06:23:52.124Z,2.83
2023-04-17T06:26:55.357Z,2.77
2023-04-17T06:30:00.898Z,3.20
2023-04-17T06:33:06.810Z,2.80
2023-04-17T06:36:10.596Z,3.13
2023-04-17T06:39:22.984Z,3.38
2023-04-17T06:42:26.472Z,3.10
2023-04-17T06:45:37.093Z,3.57
2023-04-17T06:48:42.272Z,3.40
2023-04-17T06:51:47.671Z,3.20
2023-04-17T06:55:04.308Z,4.90
2023-04-17T06:58:14.892Z,3.03
2023-04-17T07:01:22.258Z,3.00
2023-04-17T07:04:25.454Z,2.97
2023-04-17T07:07:30.768Z,3.08
2023-04-17T07:10:35.412Z,2.80
2023-04-17T07:13:38.676Z,3.23
2023-04-17T07:16:41.823Z,3.13
2023-04-17T07:19:45.075Z,3.05
2023-04-17T07:22:49.990Z,3.05
2023-04-17T07:25:52.990Z,3.45
2023-04-17T07:28:56.091Z,3.10
2023-04-17T07:32:04.621Z,2.70
2023-04-17T07:35:16.140Z,3.03
2023-04-17T07:38:23.824Z,3.22
2023-04-17T07:41:27.457Z,3.08
2023-04-17T07:44:31.350Z,3.10
2023-04-17T07:48:04.868Z,3.57
2023-04-17T07:51:23.788Z,3.30
2023-04-17T07:54:27.322Z,2.67
2023-04-17T07:57:31.082Z,2.95
2023-04-17T08:00:35.095Z,3.27
2023-04-17T08:03:41.645Z,3.40
2023-04-17T08:06:45.601Z,3.60
2023-04-17T08:09:51.232Z,2.72
2023-04-17T08:12:55.035Z,3.00
2023-04-17T08:15:59.691Z,3.17
2023-04-17T08:19:03.396Z,3.43
2023-04-17T08:22:07.441Z,3.33
2023-04-17T08:25:11.526Z,3.10
2023-04-17T08:28:14.448Z,3.17
2023-04-17T08:31:17.164Z,3.40
2023-04-17T08:34:19.892Z,3.20
2023-04-17T08:37:22.623Z,2.97
2023-04-17T08:40:29.517Z,3.30
2023-04-17T08:43:47.553Z,3.53
2023-04-17T08:47:06.918Z,2.83
2023-04-17T08:50:15.907Z,3.20
2023-04-17T08:53:20.744Z,3.40
2023-04-17T08:56:28.791Z,2.70
2023-04-17T08:59:33.833Z,2.72
2023-04-17T09:02:54.925Z,2.67
2023-04-17T09:05:58.716Z,3.00
2023-04-17T09:09:02.690Z,2.90
2023-04-17T09:12:26.120Z,2.58
2023-04-17T09:15:43.423Z,2.70
2023-04-17T09:19:07.781Z,3.10
2023-04-17T09:22:22.466Z,2.77
2023-04-17T09:25:26.722Z,3.20
2023-04-17T09:28:40.716Z,2.83
2023-04-17T09:36:33.304Z,3.53
2023-04-17T09:40:07.773Z,3.03
2023-04-17T09:43:28.695Z,2.90
2023-04-17T09:47:14.218Z,2.65
2023-04-17T09:50:25.028Z,3.03
2023-04-17T09:53:28.819Z,2.93
2023-04-17T09:56:42.602Z,2.70
2023-04-17T09:59:50.545Z,2.20
2023-04-17T10:02:56.576Z,2.53
2023-04-17T10:06:04.238Z,2.85
2023-04-17T10:09:08.300Z,3.20
2023-04-17T10:12:17.081Z,3.50
2023-04-17T10:15:24.152Z,2.50
2023-04-17T10:18:32.568Z,2.20
2023-04-17T10:21:40.343Z,2.70
2023-04-17T10:24:47.644Z,2.70
2023-04-17T10:27:54.505Z,2.60
2023-04-17T10:31:00.139Z,2.55
2023-04-17T10:34:02.840Z,3.10
2023-04-17T10:37:06.821Z,2.78
2023-04-17T10:40:12.156Z,2.70
2023-04-17T10:43:17.993Z,2.43
2023-04-17T10:46:26.736Z,3.25
2023-04-17T10:49:48.406Z,2.33
2023-04-17T10:52:53.115Z,3.20
2023-04-17T10:55:57.648Z,2.27
2023-04-17T10:59:04.447Z,3.10
2023-04-17T11:02:08.381Z,3.22
2023-04-17T11:05:12.117Z,7.15
2023-04-17T11:08:15.705Z,2.90
2023-04-17T11:11:26.934Z,3.10
2023-04-17T11:14:42.863Z,2.93
2023-04-17T11:17:48.639Z,2.58
2023-04-17T11:20:52.676Z,2.60
2023-04-17T11:23:55.258Z,2.75
2023-04-17T11:27:00.927Z,2.70
2023-04-17T11:30:04.043Z,2.90
2023-04-17T11:33:09.039Z,3.13
2023-04-17T11:36:11.891Z,2.55
2023-04-17T11:39:16.191Z,3.10
2023-04-17T11:42:28.436Z,3.13
2023-04-17T11:45:33.084Z,2.70
2023-04-17T11:48:35.787Z,2.53
2023-04-17T11:51:39.116Z,2.35
2023-04-17T11:54:42.759Z,2.58
2023-04-17T11:57:45.664Z,4.00
2023-04-17T12:01:05.070Z,2.73
2023-04-17T12:04:26.452Z,2.90
2023-04-17T12:07:44.653Z,2.70
2023-04-17T12:10:52.126Z,3.10
2023-04-17T12:13:56.425Z,3.17
2023-04-17T12:16:59.955Z,4.13
2023-04-17T12:20:04.183Z,3.25
2023-04-17T12:23:07.112Z,2.53
2023-04-17T12:26:09.871Z,3.67
2023-04-17T12:29:12.586Z,3.40
2023-04-17T12:32:16.697Z,2.90
2023-04-17T12:35:20.815Z,3.28
2023-04-17T12:38:23.729Z,3.08
2023-04-17T12:41:26.921Z,4.20
2023-04-17T12:44:34.410Z,3.47
2023-04-17T12:47:38.206Z,3.90
2023-04-17T12:50:44.393Z,3.80
2023-04-17T12:53:47.884Z,3.90
2023-04-17T12:57:02.328Z,3.63
2023-04-17T13:00:20.408Z,3.40
2023-04-17T13:03:28.456Z,3.43
2023-04-17T13:06:32.510Z,4.78
2023-04-17T13:09:35.882Z,4.05
2023-04-17T13:12:42.204Z,3.80
2023-04-17T13:15:48.168Z,3.90
2023-04-17T13:18:51.036Z,3.70
2023-04-17T13:21:53.643Z,3.28
2023-04-17T13:24:57.196Z,5.00
2023-04-17T13:28:00.212Z,4.10
2023-04-17T13:31:06.026Z,3.93
2023-04-17T13:34:11.458Z,7.23
2023-04-17T13:37:15.360Z,4.40
2023-04-17T13:40:21.109Z,4.32
2023-04-17T13:43:24.265Z,6.85
2023-04-17T13:46:27.037Z,10.27
2023-04-17T13:49:29.961Z,4.20
2023-04-17T13:52:33.187Z,4.50
2023-04-17T13:55:36.064Z,4.20
2023-04-17T13:58:45.495Z,4.60
2023-04-17T14:01:49.287Z,4.40
2023-04-17T14:04:52.349Z,4.47
2023-04-17T14:07:55.873Z,4.60
2023-04-17T14:10:58.496Z,5.60
2023-04-17T14:14:01.538Z,4.78
2023-04-17T14:17:04.268Z,4.63
2023-04-17T14:20:08.671Z,4.50
2023-04-17T14:23:11.424Z,4.50
2023-04-17T14:26:14.137Z,5.63
2023-04-17T14:29:17.062Z,4.63
2023-04-17T14:32:30.327Z,8.27
2023-04-17T14:35:34.085Z,5.07
2023-04-17T14:38:46.783Z,4.35
2023-04-17T14:41:52.458Z,4.10
2023-04-17T14:44:55.262Z,5.70
2023-04-17T14:47:58.149Z,4.40
2023-04-17T14:51:01.687Z,4.03
2023-04-17T14:54:06.530Z,4.10
2023-04-17T14:57:10.070Z,5.28
2023-04-17T15:00:13.353Z,4.68
2023-04-17T15:03:16.130Z,4.17
2023-04-17T15:06:20.059Z,4.17
2023-04-17T15:09:22.737Z,4.15
2023-04-17T15:12:25.363Z,4.18
2023-04-17T15:15:28.560Z,3.80
2023-04-17T15:18:31.377Z,4.23
2023-04-17T15:21:34.233Z,4.13
2023-04-17T15:24:36.898Z,4.18
2023-04-17T15:27:39.621Z,4.80
2023-04-17T15:30:43.152Z,4.00
2023-04-17T15:33:47.437Z,4.33
2023-04-17T15:36:50.942Z,4.27
2023-04-17T15:39:53.608Z,4.22
2023-04-17T15:42:56.424Z,4.50
2023-04-17T15:46:00.141Z,4.45
2023-04-17T15:49:08.762Z,3.70
2023-04-17T15:52:12.876Z,4.10
2023-04-17T15:55:16.106Z,4.10
2023-04-17T15:58:18.808Z,4.07
2023-04-17T16:01:21.492Z,4.10
2023-04-17T16:04:24.693Z,4.30
2023-04-17T16:07:27.501Z,3.93
2023-04-17T16:10:30.412Z,4.55
2023-04-17T16:13:32.959Z,4.45
2023-04-17T16:16:35.707Z,4.00
2023-04-17T16:19:38.982Z,3.90
2023-04-17T16:22:41.670Z,4.23
2023-04-17T16:25:44.234Z,4.25
2023-04-17T16:28:46.881Z,3.92
2023-04-17T16:31:49.846Z,3.80
2023-04-17T16:34:52.773Z,3.80
2023-04-17T16:37:55.446Z,3.50
2023-04-17T16:40:59.068Z,4.18
2023-04-17T16:44:02.436Z,3.60
2023-04-17T16:47:13.248Z,3.83
2023-04-17T16:50:16.677Z,3.63
2023-04-17T16:53:21.321Z,3.87
2023-04-17T16:56:24.482Z,3.22
2023-04-17T16:59:27.119Z,3.90
2023-04-17T17:02:29.802Z,3.55
2023-04-17T17:05:33.066Z,3.50
2023-04-17T17:08:36.530Z,4.00
2023-04-17T17:11:41.963Z,3.67
2023-04-17T17:14:44.972Z,3.30
2023-04-17T17:17:48.591Z,3.55
2023-04-17T17:20:54.137Z,3.40
2023-04-17T17:23:57.572Z,3.70
2023-04-17T17:27:00.676Z,3.70
2023-04-17T17:30:04.230Z,3.50
2023-04-17T17:33:06.927Z,3.55
2023-04-17T17:36:11.981Z,3.40
2023-04-17T17:39:14.771Z,3.07
2023-04-17T17:42:17.442Z,3.90
2023-04-17T17:45:20.652Z,5.38
2023-04-17T17:48:24.010Z,3.67
2023-04-17T17:51:27.543Z,3.60
2023-04-17T17:54:34.542Z,4.80
2023-04-17T17:57:48.275Z,3.58
2023-04-17T18:00:51.738Z,3.63
2023-04-17T18:03:55.260Z,4.10
2023-04-17T18:06:58.636Z,3.77
2023-04-17T18:10:02.141Z,4.00
2023-04-17T18:13:05.774Z,4.20
2023-04-17T18:16:08.506Z,3.47
2023-04-17T18:19:12.660Z,3.90
2023-04-17T18:22:15.244Z,3.83
2023-04-17T18:25:17.995Z,4.50
2023-04-17T18:28:20.814Z,4.60
2023-04-17T18:31:25.243Z,5.07
2023-04-17T18:34:27.865Z,5.00
2023-04-17T18:37:30.540Z,4.50
2023-04-17T18:40:33.296Z,4.37
2023-04-17T18:43:35.918Z,3.97
2023-04-17T18:46:38.523Z,4.72
2023-04-17T18:49:41.662Z,6.13
2023-04-17T18:52:48.791Z,5.53
2023-04-17T18:55:53.636Z,9.80
2023-04-17T18:58:56.292Z,7.05
2023-04-17T19:01:59.059Z,6.65
2023-04-17T19:05:01.846Z,5.10
2023-04-17T19:08:05.277Z,4.80
2023-04-17T19:11:08.052Z,5.50
2023-04-17T19:14:10.895Z,5.25
2023-04-17T19:17:13.689Z,5.00
2023-04-17T19:20:16.862Z,4.90
2023-04-17T19:23:20.213Z,4.83
2023-04-17T19:26:23.743Z,4.67
2023-04-17T19:29:27.150Z,4.32
2023-04-17T19:32:31.656Z,4.00
2023-04-17T19:35:35.234Z,4.70
2023-04-17T19:38:38.606Z,4.20
2023-04-17T19:41:42.787Z,4.50
2023-04-17T19:44:46.294Z,3.90
2023-04-17T19:47:54.976Z,4.00
2023-04-17T19:51:00.063Z,4.13
2023-04-17T19:54:02.708Z,3.53
2023-04-17T19:57:05.323Z,4.10
2023-04-17T20:00:08.757Z,3.80
2023-04-17T20:03:15.243Z,4.00
2023-04-17T20:06:19.627Z,3.70
2023-04-17T20:09:22.321Z,3.40
2023-04-17T20:12:25.547Z,3.37
2023-04-17T20:15:28.188Z,3.78
2023-04-17T20:18:31.472Z,4.43
2023-04-17T20:21:34.337Z,4.65
2023-04-17T20:24:37.740Z,3.97
2023-04-17T20:27:40.640Z,3.63
2023-04-17T20:30:43.213Z,3.60
2023-04-17T20:33:46.875Z,3.67
2023-04-17T20:36:49.453Z,3.78
2023-04-17T20:39:52.863Z,3.47
2023-04-17T20:42:55.520Z,3.40
2023-04-17T20:45:59.277Z,2.97
2023-04-17T20:49:01.871Z,2.67
2023-04-17T20:52:04.717Z,2.75
2023-04-17T20:55:08.800Z,2.40
2023-04-17T20:58:11.463Z,2.40
2023-04-17T21:01:15.027Z,2.33
2023-04-17T21:04:18.386Z,2.00
2023-04-17T21:07:21.059Z,2.40
2023-04-17T21:10:24.072Z,2.50
2023-04-17T21:13:26.899Z,2.30
2023-04-17T21:16:29.740Z,2.70
2023-04-17T21:19:36.013Z,3.17
2023-04-17T21:22:38.962Z,3.33
2023-04-17T21:25:42.353Z,2.80
2023-04-17T21:28:45.480Z,2.57
2023-04-17T21:31:48.264Z,2.67
2023-04-17T21:34:50.770Z,2.60
2023-04-17T21:37:53.485Z,2.58
2023-04-17T21:40:58.278Z,2.40
2023-04-17T21:44:02.641Z,2.50
2023-04-17T21:47:05.337Z,2.25
2023-04-17T21:50:08.782Z,2.42
2023-04-17T21:53:12.345Z,2.42
2023-04-17T21:56:15.031Z,2.60
2023-04-17T21:59:18.226Z,3.43
2023-04-17T22:02:21.047Z,4.15
2023-04-17T22:05:23.752Z,2.72
2023-04-17T22:08:26.354Z,2.25
2023-04-17T22:11:29.042Z,2.20
2023-04-17T22:14:31.535Z,2.50
2023-04-17T22:17:34.221Z,3.00
2023-04-17T22:20:37.065Z,2.65
2023-04-17T22:23:39.788Z,2.70
2023-04-17T22:26:42.462Z,2.37
2023-04-17T22:29:45.274Z,2.40
2023-04-17T22:32:47.851Z,2.70
2023-04-17T22:35:51.174Z,2.65
2023-04-17T22:38:53.823Z,2.50
2023-04-17T22:41:57.934Z,2.70
2023-04-17T22:45:01.419Z,2.50
2023-04-17T22:48:04.379Z,2.40
2023-04-17T22:51:09.729Z,2.40
2023-04-17T22:54:22.281Z,2.55
2023-04-17T22:57:25.896Z,2.60
2023-04-17T23:00:30.011Z,2.60
2023-04-17T23:03:32.689Z,2.05
2023-04-17T23:06:35.302Z,2.40
2023-04-17T23:09:37.981Z,2.28
2023-04-17T23:12:40.940Z,2.43
2023-04-17T23:15:43.643Z,2.37
2023-04-17T23:18:46.589Z,2.38
2023-04-17T23:21:49.319Z,2.10
2023-04-17T23:24:53.421Z,2.30
2023-04-17T23:27:56.232Z,2.10
2023-04-17T23:31:04.532Z,2.30
2023-04-17T23:34:07.995Z,2.00
2023-04-17T23:37:11.460Z,2.20
2023-04-17T23:40:14.224Z,2.00
2023-04-17T23:43:16.976Z,2.23
2023-04-17T23:46:20.052Z,2.27
2023-04-17T23:49:22.827Z,2.38
2023-04-17T23:52:26.337Z,2.08
2023-04-17T23:55:29.293Z,2.45
2023-04-17T23:58:32.950Z,2.33
